Time;durP1;ratioP1;P1;durP2;ratioP2;P2;SDS_P1;SDS_P2;PMS_P1;PMS_P2;Temp;Humidity;BMP_temperature;BMP_pressure;BME280_temperature;BME280_humidity;BME280_pressure;Samples;Min_cycle;Max_cycle;Signal;HPM_P1;HPM_P2
2022/04/28 00:00:32;;;;;;;19.80;11.25;;;;;;;;;;4957986;28;20447;-81
2022/04/28 00:02:58;;;;;;;20.17;10.40;;;;;;;;;;4957990;28;20031;-81
2022/04/28 00:05:24;;;;;;;19.58;10.55;;;;;;;;;;4957824;28;20038;-80
2022/04/28 00:07:51;;;;;;;20.02;9.75;;;;;;;;;;4957776;28;20031;-80
2022/04/28 00:10:17;;;;;;;17.95;9.95;;;;;;;;;;4975527;28;20535;-81
2022/04/28 00:12:43;;;;;;;17.02;9.35;;;;;;;;;;4959283;28;20014;-81
2022/04/28 00:15:10;;;;;;;18.48;9.88;;;;;;;;;;4975121;28;20057;-81
2022/04/28 00:17:36;;;;;;;17.85;8.85;;;;;;;;;;4957637;28;20077;-81
2022/04/28 00:20:03;;;;;;;17.92;9.40;;;;;;;;;;4958618;28;20034;-82
2022/04/28 00:22:30;;;;;;;16.25;8.90;;;;;;;;;;4958201;28;20022;-81
2022/04/28 00:24:56;;;;;;;17.15;9.02;;;;;;;;;;4957143;28;20514;-81
2022/04/28 00:27:22;;;;;;;16.75;9.32;;;;;;;;;;4957581;28;20073;-81
2022/04/28 00:29:48;;;;;;;17.75;8.68;;;;;;;;;;4957537;28;20061;-81
2022/04/28 00:32:14;;;;;;;14.50;8.85;;;;;;;;;;4957423;28;20483;-80
2022/04/28 00:34:41;;;;;;;16.10;9.00;;;;;;;;;;4957604;28;20022;-80
2022/04/28 00:37:08;;;;;;;20.23;9.32;;;;;;;;;;4957729;28;20035;-79
2022/04/28 00:39:35;;;;;;;18.92;9.60;;;;;;;;;;4957506;28;20058;-93
2022/04/28 00:42:01;;;;;;;16.92;8.52;;;;;;;;;;4957524;28;20468;-93
2022/04/28 00:44:27;;;;;;;16.75;8.27;;;;;;;;;;4957869;28;20022;-81
2022/04/28 00:46:53;;;;;;;16.48;8.23;;;;;;;;;;4974919;28;20030;-80
2022/04/28 00:52:05;;;;;;;15.40;8.68;;;;;;;;;;4975162;28;20227;-86
2022/04/28 00:54:31;;;;;;;18.00;9.00;;;;;;;;;;4974190;28;20050;-81
2022/04/28 00:56:57;;;;;;;16.88;8.88;;;;;;;;;;4957229;28;20027;-81
2022/04/28 00:59:25;;;;;;;16.98;8.88;;;;;;;;;;4957095;28;20023;-80
2022/04/28 01:01:51;;;;;;;16.08;8.43;;;;;;;;;;4978389;28;20034;-80
2022/04/28 01:04:17;;;;;;;18.60;8.60;;;;;;;;;;4974490;28;20030;-77
2022/04/28 01:06:44;;;;;;;14.68;8.50;;;;;;;;;;4957047;28;20472;-80
2022/04/28 01:09:10;;;;;;;17.30;9.15;;;;;;;;;;4956963;28;20041;-81
2022/04/28 01:11:37;;;;;;;18.05;8.13;;;;;;;;;;4957289;28;20035;-79
2022/04/28 01:14:04;;;;;;;17.40;7.07;;;;;;;;;;4957725;28;20061;-95
2022/04/28 01:16:30;;;;;;;13.23;7.47;;;;;;;;;;4957431;28;20023;-81
2022/04/28 01:18:56;;;;;;;13.25;7.07;;;;;;;;;;4956994;28;20039;-80
2022/04/28 01:21:22;;;;;;;11.73;6.68;;;;;;;;;;4956962;28;20022;-80
2022/04/28 01:23:48;;;;;;;13.70;7.43;;;;;;;;;;4957055;28;20030;-81
2022/04/28 01:26:16;;;;;;;13.75;6.95;;;;;;;;;;4957004;28;20559;-81
2022/04/28 01:28:42;;;;;;;10.85;6.55;;;;;;;;;;4956766;28;20054;-88
2022/04/28 01:31:09;;;;;;;12.80;7.07;;;;;;;;;;4957170;28;20027;-81
2022/04/28 01:33:35;;;;;;;12.43;7.13;;;;;;;;;;4957215;28;20041;-81
2022/04/28 01:36:01;;;;;;;15.45;6.93;;;;;;;;;;4958078;28;20027;-81
2022/04/28 01:38:27;;;;;;;14.15;7.10;;;;;;;;;;4977967;28;20558;-93
2022/04/28 01:40:53;;;;;;;11.73;6.72;;;;;;;;;;4960912;28;20018;-80
2022/04/28 01:43:19;;;;;;;11.13;6.85;;;;;;;;;;4960409;28;20086;-80
2022/04/28 01:45:45;;;;;;;14.73;6.63;;;;;;;;;;4977690;28;20032;-81
2022/04/28 01:48:12;;;;;;;14.40;6.93;;;;;;;;;;4978481;28;20031;-86
2022/04/28 01:50:38;;;;;;;11.45;6.18;;;;;;;;;;4962644;28;20532;-81
2022/04/28 01:55:49;;;;;;;13.15;6.90;;;;;;;;;;4977955;28;20085;-82
2022/04/28 01:58:15;;;;;;;12.25;6.32;;;;;;;;;;4960265;28;20031;-81
2022/04/28 02:00:42;;;;;;;12.05;6.93;;;;;;;;;;4960315;28;20082;-81
2022/04/28 02:03:08;;;;;;;15.15;6.30;;;;;;;;;;4977610;28;20026;-80
2022/04/28 02:05:35;;;;;;;10.63;6.05;;;;;;;;;;4977181;28;20038;-79
2022/04/28 02:08:02;;;;;;;13.15;6.93;;;;;;;;;;4960156;28;20031;-83
2022/04/28 02:10:31;;;;;;;13.20;6.40;;;;;;;;;;4960423;28;20065;-93
2022/04/28 02:12:57;;;;;;;12.80;5.72;;;;;;;;;;4959914;28;20031;-81
2022/04/28 02:15:23;;;;;;;12.50;6.18;;;;;;;;;;4960061;28;20022;-80
2022/04/28 02:17:50;;;;;;;10.88;5.63;;;;;;;;;;4959860;28;20492;-80
2022/04/28 02:20:19;;;;;;;9.88;5.70;;;;;;;;;;4959974;28;20023;-93
2022/04/28 02:22:45;;;;;;;11.07;6.00;;;;;;;;;;4959644;28;20038;-80
2022/04/28 02:25:11;;;;;;;13.27;6.47;;;;;;;;;;4959795;28;20027;-80
2022/04/28 02:27:37;;;;;;;12.75;5.75;;;;;;;;;;4959585;28;20039;-93
2022/04/28 02:30:04;;;;;;;12.57;6.55;;;;;;;;;;4956482;29;20039;-80
2022/04/28 02:33:08;;;;;;;11.40;6.28;;;;;;;;;;4957934;29;20891;-81
2022/04/28 02:35:16;;;;;;;11.75;6.70;;;;;;;;;;4960825;29;20028;-80
2022/04/28 02:37:43;;;;;;;10.18;5.97;;;;;;;;;;4956094;29;20039;-80
2022/04/28 02:40:10;;;;;;;12.60;6.10;;;;;;;;;;4957790;29;20034;-81
2022/04/28 02:42:41;;;;;;;12.20;6.78;;;;;;;;;;4956401;29;20063;-81
2022/04/28 02:45:11;;;;;;;12.73;6.68;;;;;;;;;;4956217;29;20023;-81
2022/04/28 02:47:37;;;;;;;14.05;6.95;;;;;;;;;;4955894;28;20479;-82
2022/04/28 02:50:05;;;;;;;11.55;6.90;;;;;;;;;;4956203;29;20032;-80
2022/04/28 02:52:32;;;;;;;11.98;7.35;;;;;;;;;;4955992;29;20078;-81
2022/04/28 02:54:58;;;;;;;14.25;7.03;;;;;;;;;;4956109;29;20034;-80
2022/04/28 02:57:24;;;;;;;13.02;6.40;;;;;;;;;;4955636;29;20031;-80
2022/04/28 02:59:50;;;;;;;12.02;6.72;;;;;;;;;;4955741;29;20118;-81
2022/04/28 03:02:16;;;;;;;17.60;7.18;;;;;;;;;;4957135;29;20027;-80
2022/04/28 03:04:42;;;;;;;11.63;6.30;;;;;;;;;;4955892;29;20388;-79
2022/04/28 03:12:38;;;;;;;11.38;6.20;;;;;;;;;;4957301;29;20035;-88
2022/04/28 03:15:07;;;;;;;12.07;6.82;;;;;;;;;;4955620;29;20043;-94
2022/04/28 03:17:36;;;;;;;12.82;7.57;;;;;;;;;;4956029;29;20439;-88
2022/04/28 03:20:05;;;;;;;14.55;7.30;;;;;;;;;;4958866;29;20034;-80
2022/04/28 03:22:35;;;;;;;13.45;7.47;;;;;;;;;;4955827;29;20035;-80
2022/04/28 03:25:02;;;;;;;13.60;7.85;;;;;;;;;;4955523;29;20023;-80
2022/04/28 03:27:28;;;;;;;17.10;7.88;;;;;;;;;;4956613;29;20024;-80
2022/04/28 03:29:54;;;;;;;17.80;8.30;;;;;;;;;;4955123;29;20075;-81
2022/04/28 03:32:20;;;;;;;15.05;7.70;;;;;;;;;;4955017;29;20030;-80
2022/04/28 03:34:46;;;;;;;11.98;7.55;;;;;;;;;;4957135;29;20038;-81
2022/04/28 03:37:13;;;;;;;14.38;7.47;;;;;;;;;;4955189;29;20035;-79
2022/04/28 03:39:39;;;;;;;14.32;7.43;;;;;;;;;;4956906;29;20492;-80
2022/04/28 03:42:06;;;;;;;13.32;7.40;;;;;;;;;;4956426;29;20062;-79
2022/04/28 03:44:32;;;;;;;16.27;8.18;;;;;;;;;;4954966;29;20480;-80
2022/04/28 03:46:59;;;;;;;13.50;7.57;;;;;;;;;;4955178;29;20057;-81
2022/04/28 03:49:25;;;;;;;13.80;7.45;;;;;;;;;;4954953;29;20027;-80
2022/04/28 03:51:51;;;;;;;13.43;7.55;;;;;;;;;;4955288;29;20039;-81
2022/04/28 03:54:17;;;;;;;16.35;7.40;;;;;;;;;;4954866;29;20050;-92
2022/04/28 03:56:43;;;;;;;12.38;7.25;;;;;;;;;;4955156;29;20083;-81
2022/04/28 03:59:10;;;;;;;14.35;8.23;;;;;;;;;;4956039;28;20066;-80
2022/04/28 04:01:36;;;;;;;18.10;8.02;;;;;;;;;;4954933;29;20050;-81
2022/04/28 04:04:02;;;;;;;15.20;8.20;;;;;;;;;;4954639;29;20031;-80
2022/04/28 04:06:28;;;;;;;15.25;7.43;;;;;;;;;;4954438;29;20141;-80
2022/04/28 04:08:57;;;;;;;16.58;7.70;;;;;;;;;;4955913;29;20085;-86
2022/04/28 04:11:23;;;;;;;14.15;7.95;;;;;;;;;;4954791;29;20042;-81
2022/04/28 04:13:50;;;;;;;15.40;7.72;;;;;;;;;;4954695;29;20031;-81
2022/04/28 04:16:16;;;;;;;12.23;7.78;;;;;;;;;;4955890;29;20063;-81
2022/04/28 04:18:42;;;;;;;12.57;8.15;;;;;;;;;;4954587;29;20043;-80
2022/04/28 04:21:09;;;;;;;15.10;7.95;;;;;;;;;;4954677;29;20093;-80
2022/04/28 04:23:35;;;;;;;13.40;7.35;;;;;;;;;;4963013;28;20046;-78
2022/04/28 04:26:01;;;;;;;11.25;7.63;;;;;;;;;;4969911;28;20031;-79
2022/04/28 04:28:27;;;;;;;11.57;7.20;;;;;;;;;;4955893;28;20027;-79
2022/04/28 04:33:38;;;;;;;14.38;7.43;;;;;;;;;;4975343;28;20395;-87
2022/04/28 04:36:08;;;;;;;13.23;7.47;;;;;;;;;;4973654;28;20118;-84
2022/04/28 04:38:35;;;;;;;12.45;7.03;;;;;;;;;;4973357;28;20141;-82
2022/04/28 04:41:01;;;;;;;16.73;7.60;;;;;;;;;;4982260;28;20448;-82
2022/04/28 04:43:27;;;;;;;11.32;7.10;;;;;;;;;;4982424;28;20093;-82
2022/04/28 04:45:59;;;;;;;13.13;7.22;;;;;;;;;;4980188;28;20030;-87
2022/04/28 04:48:25;;;;;;;11.35;7.53;;;;;;;;;;4978392;28;20034;-81
2022/04/28 04:50:52;;;;;;;13.70;7.68;;;;;;;;;;4999100;28;20495;-82
2022/04/28 04:53:19;;;;;;;15.95;7.50;;;;;;;;;;5000169;28;20027;-82
2022/04/28 04:55:45;;;;;;;14.35;8.27;;;;;;;;;;4997501;28;20053;-81
2022/04/28 04:58:11;;;;;;;13.23;7.13;;;;;;;;;;4998910;28;20034;-82
2022/04/28 05:00:37;;;;;;;13.57;7.80;;;;;;;;;;4978288;28;20028;-92
2022/04/28 05:03:03;;;;;;;12.32;7.65;;;;;;;;;;4976697;28;20043;-82
2022/04/28 05:05:29;;;;;;;14.30;8.00;;;;;;;;;;4977003;28;20022;-81
2022/04/28 05:07:56;;;;;;;14.43;6.97;;;;;;;;;;4968762;28;20430;-83
2022/04/28 05:10:22;;;;;;;12.30;6.40;;;;;;;;;;4959809;28;20031;-89
2022/04/28 05:12:48;;;;;;;9.43;5.43;;;;;;;;;;4977851;28;20030;-80
2022/04/28 05:15:14;;;;;;;10.13;4.90;;;;;;;;;;4980610;28;20057;-83
2022/04/28 05:17:40;;;;;;;10.13;4.88;;;;;;;;;;4998125;28;20494;-90
2022/04/28 05:20:07;;;;;;;9.10;4.85;;;;;;;;;;4998189;28;20031;-91
2022/04/28 05:22:33;;;;;;;9.85;4.53;;;;;;;;;;4981280;28;20026;-82
2022/04/28 05:25:00;;;;;;;11.10;5.40;;;;;;;;;;4965330;28;20045;-82
2022/04/28 05:27:30;;;;;;;11.25;4.72;;;;;;;;;;4978901;28;20031;-95
2022/04/28 05:29:56;;;;;;;10.38;5.53;;;;;;;;;;4973743;28;20490;-85
2022/04/28 05:32:22;;;;;;;11.52;5.38;;;;;;;;;;4973527;28;20030;-83
2022/04/28 05:34:49;;;;;;;8.95;5.45;;;;;;;;;;4977829;28;20072;-82
2022/04/28 05:37:15;;;;;;;9.73;5.75;;;;;;;;;;4994247;28;20027;-88
2022/04/28 05:39:43;;;;;;;10.82;6.10;;;;;;;;;;4967757;28;20049;-83
2022/04/28 05:42:09;;;;;;;11.52;5.90;;;;;;;;;;4993116;28;20105;-93
2022/04/28 05:47:21;;;;;;;14.05;6.25;;;;;;;;;;4998768;28;20053;-94
2022/04/28 05:49:50;;;;;;;11.63;6.82;;;;;;;;;;4997190;28;20058;-94
2022/04/28 05:52:22;;;;;;;11.45;7.18;;;;;;;;;;4980477;28;20135;-92
2022/04/28 05:54:51;;;;;;;9.27;6.13;;;;;;;;;;4980961;28;20026;-92
2022/04/28 05:57:18;;;;;;;10.55;6.70;;;;;;;;;;4981810;28;21977;-80
2022/04/28 05:59:44;;;;;;;12.25;6.22;;;;;;;;;;4979166;28;20057;-81
2022/04/28 06:02:11;;;;;;;8.65;5.45;;;;;;;;;;4980066;28;20026;-82
2022/04/28 06:04:37;;;;;;;10.63;5.53;;;;;;;;;;4979457;28;20050;-84
2022/04/28 06:07:06;;;;;;;10.85;5.43;;;;;;;;;;4980053;28;20085;-92
2022/04/28 06:09:33;;;;;;;9.50;5.22;;;;;;;;;;4979568;28;20031;-81
2022/04/28 06:11:59;;;;;;;8.93;4.68;;;;;;;;;;4996696;28;20022;-82
2022/04/28 06:14:25;;;;;;;8.32;4.35;;;;;;;;;;4997036;28;20463;-83
2022/04/28 06:16:51;;;;;;;9.75;4.25;;;;;;;;;;4976651;28;20042;-82
2022/04/28 06:19:19;;;;;;;7.57;4.32;;;;;;;;;;4959864;28;20031;-87
2022/04/28 06:21:46;;;;;;;8.60;4.60;;;;;;;;;;4959130;28;20049;-84
2022/04/28 06:24:15;;;;;;;8.77;4.50;;;;;;;;;;4960385;28;20119;-84
2022/04/28 06:26:41;;;;;;;8.35;4.75;;;;;;;;;;4959639;28;20041;-82
2022/04/28 06:29:07;;;;;;;8.00;4.57;;;;;;;;;;4956157;29;20047;-86
2022/04/28 06:31:34;;;;;;;6.13;4.13;;;;;;;;;;4957953;29;20077;-81
2022/04/28 06:34:00;;;;;;;10.07;4.40;;;;;;;;;;4957592;28;20059;-88
2022/04/28 06:36:26;;;;;;;8.15;4.60;;;;;;;;;;4961143;28;20023;-84
2022/04/28 06:38:52;;;;;;;7.20;3.90;;;;;;;;;;4972865;28;20550;-84
2022/04/28 06:41:19;;;;;;;7.22;3.47;;;;;;;;;;4977095;28;20476;-86
2022/04/28 06:43:48;;;;;;;7.60;3.40;;;;;;;;;;4971628;28;20038;-88
2022/04/28 06:46:15;;;;;;;6.93;3.40;;;;;;;;;;4965850;28;20023;-86
2022/04/28 06:48:48;;;;;;;6.30;3.97;;;;;;;;;;4975705;28;20031;-88
2022/04/28 06:51:15;;;;;;;6.20;3.25;;;;;;;;;;4976964;28;20034;-81
2022/04/28 06:53:41;;;;;;;5.03;3.13;;;;;;;;;;4960062;28;20065;-92
2022/04/28 06:56:07;;;;;;;7.55;3.70;;;;;;;;;;4956562;28;20086;-83
2022/04/28 06:58:34;;;;;;;6.95;3.22;;;;;;;;;;4968517;28;20034;-89
2022/04/28 07:01:00;;;;;;;8.45;3.88;;;;;;;;;;4979353;28;20038;-92
2022/04/28 07:03:26;;;;;;;5.95;2.85;;;;;;;;;;4977076;28;20026;-88
2022/04/28 07:05:53;;;;;;;4.10;2.80;;;;;;;;;;4964902;28;20114;-83
2022/04/28 07:08:20;;;;;;;6.65;3.08;;;;;;;;;;4956892;29;20388;-87
2022/04/28 07:10:46;;;;;;;8.00;2.78;;;;;;;;;;4971114;28;20058;-83
2022/04/28 07:13:12;;;;;;;5.22;3.20;;;;;;;;;;4969762;28;20114;-83
2022/04/28 07:15:39;;;;;;;5.47;3.20;;;;;;;;;;4960670;28;20433;-84
2022/04/28 07:18:06;;;;;;;7.95;3.50;;;;;;;;;;4959110;28;20046;-83
2022/04/28 07:20:32;;;;;;;9.02;3.20;;;;;;;;;;4956038;29;20038;-83
2022/04/28 07:22:59;;;;;;;4.50;2.95;;;;;;;;;;4966149;28;20034;-87
2022/04/28 07:25:55;;;;;;;5.05;2.63;;;;;;;;;;4957380;28;20114;-89
2022/04/28 07:28:21;;;;;;;5.32;3.13;;;;;;;;;;4962301;28;20045;-80
2022/04/28 07:30:47;;;;;;;8.45;3.13;;;;;;;;;;4961016;28;20484;-86
2022/04/28 07:33:13;;;;;;;6.35;2.90;;;;;;;;;;4971672;28;20035;-83
2022/04/28 07:35:39;;;;;;;6.38;3.33;;;;;;;;;;4971332;28;20489;-81
2022/04/28 07:38:05;;;;;;;8.13;3.42;;;;;;;;;;4956672;28;20122;-84
2022/04/28 07:40:32;;;;;;;6.57;3.38;;;;;;;;;;4971499;28;20034;-81
2022/04/28 07:42:58;;;;;;;6.15;3.60;;;;;;;;;;4956180;28;20030;-84
2022/04/28 07:45:24;;;;;;;6.43;3.05;;;;;;;;;;4972893;28;20023;-83
2022/04/28 07:47:51;;;;;;;7.18;3.88;;;;;;;;;;4974342;28;20030;-83
2022/04/28 07:50:17;;;;;;;7.75;3.28;;;;;;;;;;4974744;28;20070;-86
2022/04/28 07:52:44;;;;;;;6.18;3.65;;;;;;;;;;4964939;28;20065;-80
2022/04/28 07:55:10;;;;;;;7.63;3.42;;;;;;;;;;4963330;28;20027;-81
2022/04/28 07:57:38;;;;;;;6.10;3.78;;;;;;;;;;4963811;28;20046;-81
2022/04/28 08:00:09;;;;;;;6.57;3.30;;;;;;;;;;4962218;28;20392;-79
2022/04/28 08:02:41;;;;;;;5.43;3.17;;;;;;;;;;4983722;28;20022;-91
2022/04/28 08:05:08;;;;;;;6.22;3.33;;;;;;;;;;4963795;28;20123;-82
2022/04/28 08:07:34;;;;;;;4.95;3.00;;;;;;;;;;4954381;29;20038;-81
2022/04/28 08:10:02;;;;;;;6.25;3.38;;;;;;;;;;4954298;29;20031;-81
2022/04/28 08:12:28;;;;;;;5.00;2.72;;;;;;;;;;4955213;29;20060;-86
2022/04/28 08:14:54;;;;;;;6.57;3.30;;;;;;;;;;4955137;29;20070;-84
2022/04/28 08:17:20;;;;;;;7.00;3.45;;;;;;;;;;4954862;29;20047;-84
2022/04/28 08:19:46;;;;;;;6.63;3.60;;;;;;;;;;4954824;29;20034;-90
2022/04/28 08:22:12;;;;;;;6.32;3.28;;;;;;;;;;4954730;29;20082;-82
2022/04/28 08:24:38;;;;;;;6.30;3.45;;;;;;;;;;4955045;29;20030;-90
2022/04/28 08:27:13;;;;;;;4.93;2.85;;;;;;;;;;4954342;28;20380;-83
2022/04/28 08:29:39;;;;;;;8.23;3.42;;;;;;;;;;4954196;28;20102;-84
2022/04/28 08:32:07;;;;;;;4.75;2.92;;;;;;;;;;4954393;29;20081;-82
2022/04/28 08:34:36;;;;;;;6.38;3.20;;;;;;;;;;4956607;28;20491;-84
2022/04/28 08:37:02;;;;;;;6.45;3.08;;;;;;;;;;4954812;28;20024;-83
2022/04/28 08:39:28;;;;;;;4.97;2.75;;;;;;;;;;4954354;28;20066;-87
2022/04/28 08:41:55;;;;;;;4.60;2.72;;;;;;;;;;4955041;28;20059;-89
2022/04/28 08:44:22;;;;;;;4.53;2.50;;;;;;;;;;4954759;28;20130;-89
2022/04/28 08:46:51;;;;;;;4.07;2.42;;;;;;;;;;4955415;29;20099;-88
2022/04/28 08:49:19;;;;;;;5.53;2.83;;;;;;;;;;4955258;28;20078;-88
2022/04/28 08:51:45;;;;;;;3.60;2.28;;;;;;;;;;4954858;28;20527;-88
2022/04/28 08:54:12;;;;;;;5.25;3.10;;;;;;;;;;4956306;28;20034;-88
2022/04/28 08:56:42;;;;;;;6.43;2.60;;;;;;;;;;4960989;29;20046;-89
2022/04/28 08:59:08;;;;;;;6.68;2.80;;;;;;;;;;4955175;28;20042;-87
2022/04/28 09:01:34;;;;;;;3.95;2.65;;;;;;;;;;4956414;28;20031;-89
2022/04/28 09:04:02;;;;;;;5.05;2.80;;;;;;;;;;4961225;28;20030;-78
2022/04/28 09:06:39;;;;;;;4.15;2.60;;;;;;;;;;4973714;28;20027;-95
2022/04/28 09:09:06;;;;;;;5.95;2.25;;;;;;;;;;4962658;28;20599;-84
2022/04/28 09:11:37;;;;;;;6.00;2.92;;;;;;;;;;4954174;29;20027;-84
2022/04/28 09:14:14;;;;;;;5.70;2.58;;;;;;;;;;4955518;28;20077;-85
2022/04/28 09:16:42;;;;;;;5.72;2.58;;;;;;;;;;4954401;29;20492;-86
2022/04/28 09:19:13;;;;;;;5.68;2.50;;;;;;;;;;4955635;29;20130;-84
2022/04/28 09:21:40;;;;;;;5.57;2.80;;;;;;;;;;4954383;29;20055;-88
2022/04/28 09:24:06;;;;;;;6.00;3.03;;;;;;;;;;4955038;29;20042;-92
2022/04/28 09:26:36;;;;;;;8.68;2.78;;;;;;;;;;4956201;28;20023;-80
2022/04/28 09:29:04;;;;;;;5.47;2.80;;;;;;;;;;4956859;28;20448;-88
2022/04/28 09:31:40;;;;;;;4.40;2.58;;;;;;;;;;4961093;28;20030;-90
2022/04/28 09:34:31;;;;;;;6.18;2.70;;;;;;;;;;4958981;28;20361;-88
2022/04/28 09:36:59;;;;;;;4.90;2.63;;;;;;;;;;4957894;28;20023;-87
2022/04/28 09:42:29;;;;;;;6.25;2.47;;;;;;;;;;4974762;28;20037;-85
2022/04/28 09:44:59;;;;;;;4.65;2.83;;;;;;;;;;4957916;28;20039;-87
2022/04/28 09:47:26;;;;;;;4.30;2.80;;;;;;;;;;4957632;28;20035;-88
2022/04/28 09:50:01;;;;;;;4.47;2.60;;;;;;;;;;4959483;28;20031;-88
2022/04/28 09:52:29;;;;;;;5.75;2.47;;;;;;;;;;4957435;28;20033;-86
2022/04/28 09:54:56;;;;;;;7.78;2.97;;;;;;;;;;4957127;28;20114;-83
2022/04/28 09:57:23;;;;;;;4.75;2.72;;;;;;;;;;4975665;28;20056;-84
2022/04/28 09:59:50;;;;;;;4.47;2.85;;;;;;;;;;4961068;28;20034;-86
2022/04/28 10:02:20;;;;;;;5.03;2.72;;;;;;;;;;4995177;28;20101;-84
2022/04/28 10:04:47;;;;;;;4.03;2.50;;;;;;;;;;4996831;28;20035;-84
2022/04/28 10:07:16;;;;;;;3.80;2.40;;;;;;;;;;4979959;28;20403;-84
2022/04/28 10:09:45;;;;;;;4.85;2.50;;;;;;;;;;4980515;28;20030;-83
2022/04/28 10:12:12;;;;;;;5.85;3.53;;;;;;;;;;4980077;28;20034;-83
2022/04/28 10:14:40;;;;;;;6.70;2.80;;;;;;;;;;4980459;28;20037;-87
2022/04/28 10:17:09;;;;;;;7.43;3.10;;;;;;;;;;4975610;28;20109;-87
2022/04/28 10:19:41;;;;;;;10.60;2.90;;;;;;;;;;4960798;28;20042;-84
2022/04/28 10:22:20;;;;;;;5.68;3.05;;;;;;;;;;4960398;28;20476;-95
2022/04/28 10:33:11;;;;;;;5.32;2.50;;;;;;;;;;4977629;28;20085;-84
2022/04/28 10:35:45;;;;;;;6.70;2.50;;;;;;;;;;4960080;28;20126;-86
2022/04/28 10:38:15;;;;;;;3.95;2.40;;;;;;;;;;4959813;28;20070;-85
2022/04/28 10:40:43;;;;;;;7.25;2.85;;;;;;;;;;4962520;28;20076;-84
2022/04/28 10:43:23;;;;;;;4.88;3.03;;;;;;;;;;4967920;28;20034;-85
2022/04/28 10:45:51;;;;;;;4.25;2.38;;;;;;;;;;4968501;28;20031;-81
2022/04/28 10:48:28;;;;;;;4.25;2.75;;;;;;;;;;4995614;28;20505;-84
2022/04/28 10:51:02;;;;;;;6.03;2.40;;;;;;;;;;4993020;28;20113;-84
2022/04/28 10:53:28;;;;;;;4.47;2.63;;;;;;;;;;4975343;28;20483;-84
2022/04/28 10:55:54;;;;;;;5.25;2.75;;;;;;;;;;4979959;28;20030;-82
2022/04/28 10:58:21;;;;;;;5.25;2.40;;;;;;;;;;4968665;28;20034;-84
2022/04/28 11:00:58;;;;;;;10.95;2.90;;;;;;;;;;4978149;28;20022;-83
2022/04/28 11:03:42;;;;;;;6.40;2.40;;;;;;;;;;4978223;28;20473;-83
2022/04/28 11:06:13;;;;;;;6.50;2.65;;;;;;;;;;4995289;28;20368;-85
2022/04/28 11:08:44;;;;;;;8.68;2.67;;;;;;;;;;4995740;28;20471;-83
2022/04/28 11:11:12;;;;;;;6.78;2.80;;;;;;;;;;4978090;28;20030;-83
2022/04/28 11:13:40;;;;;;;7.25;2.40;;;;;;;;;;4978018;28;20029;-83
2022/04/28 11:16:08;;;;;;;4.85;2.35;;;;;;;;;;4978265;28;20027;-85
2022/04/28 11:18:35;;;;;;;5.65;2.53;;;;;;;;;;4978767;28;20034;-85
2022/04/28 11:21:02;;;;;;;4.15;2.38;;;;;;;;;;4970906;28;20431;-85
2022/04/28 11:23:41;;;;;;;9.60;2.80;;;;;;;;;;4959177;28;20089;-83
2022/04/28 11:26:07;;;;;;;6.32;2.05;;;;;;;;;;4959184;28;20034;-85
2022/04/28 11:28:35;;;;;;;4.10;2.40;;;;;;;;;;4959153;28;20023;-86
2022/04/28 11:31:01;;;;;;;4.40;2.17;;;;;;;;;;4958934;28;20057;-85
2022/04/28 11:33:28;;;;;;;3.95;1.90;;;;;;;;;;4959166;28;20033;-86
2022/04/28 11:35:54;;;;;;;3.83;2.10;;;;;;;;;;4959253;28;20126;-85
2022/04/28 11:38:24;;;;;;;5.32;1.73;;;;;;;;;;4959004;28;20373;-86
2022/04/28 11:41:11;;;;;;;4.05;2.20;;;;;;;;;;4959304;28;20081;-90
2022/04/28 11:43:37;;;;;;;3.67;2.08;;;;;;;;;;4960536;28;20031;-89
2022/04/28 11:46:03;;;;;;;4.05;1.90;;;;;;;;;;4969258;28;20058;-88
2022/04/28 11:48:32;;;;;;;3.55;2.13;;;;;;;;;;4964320;28;20033;-90
2022/04/28 11:51:03;;;;;;;4.38;2.25;;;;;;;;;;4960460;28;20031;-83
2022/04/28 11:53:39;;;;;;;5.03;2.60;;;;;;;;;;4976921;28;20030;-83
2022/04/28 11:56:15;;;;;;;4.63;2.38;;;;;;;;;;4959176;28;20106;-89
2022/04/28 11:58:41;;;;;;;5.97;1.95;;;;;;;;;;4958540;28;20054;-93
2022/04/28 12:01:07;;;;;;;5.93;2.20;;;;;;;;;;4958990;28;20468;-83
2022/04/28 12:03:36;;;;;;;7.45;2.60;;;;;;;;;;4958713;28;20033;-91
2022/04/28 12:06:04;;;;;;;5.82;2.40;;;;;;;;;;4974255;28;20055;-89
2022/04/28 12:08:30;;;;;;;4.40;2.25;;;;;;;;;;4958572;28;20464;-85
2022/04/28 12:19:22;;;;;;;4.20;1.90;;;;;;;;;;4975109;28;20049;-85
2022/04/28 12:21:48;;;;;;;3.83;2.03;;;;;;;;;;4958416;28;20085;-84
2022/04/28 12:24:15;;;;;;;4.03;2.00;;;;;;;;;;4957740;28;20863;-84
2022/04/28 12:26:42;;;;;;;3.92;1.60;;;;;;;;;;4957993;28;20039;-84
2022/04/28 12:29:13;;;;;;;3.00;1.88;;;;;;;;;;4969491;28;20038;-84
2022/04/28 12:31:40;;;;;;;4.47;1.67;;;;;;;;;;4978533;28;20026;-83
2022/04/28 12:34:10;;;;;;;5.57;2.10;;;;;;;;;;4975914;28;20499;-82
2022/04/28 12:36:55;;;;;;;4.28;2.17;;;;;;;;;;4989829;28;20015;-83
2022/04/28 12:39:26;;;;;;;5.40;2.40;;;;;;;;;;4938485;29;20058;-83
2022/04/28 12:41:52;;;;;;;4.63;1.90;;;;;;;;;;4938358;29;20027;-84
2022/04/28 12:44:19;;;;;;;3.55;1.73;;;;;;;;;;4938009;29;20037;-83
2022/04/28 12:46:46;;;;;;;4.13;2.00;;;;;;;;;;4972633;28;20041;-83
2022/04/28 12:49:13;;;;;;;4.45;2.28;;;;;;;;;;4957297;28;20033;-84
2022/04/28 12:51:48;;;;;;;3.90;1.73;;;;;;;;;;4974496;28;20023;-82
2022/04/28 12:54:20;;;;;;;4.00;1.70;;;;;;;;;;4957258;28;20035;-83
2022/04/28 12:56:47;;;;;;;4.30;2.67;;;;;;;;;;4974719;28;20026;-83
2022/04/28 12:59:14;;;;;;;6.25;2.20;;;;;;;;;;4956939;28;20043;-82
2022/04/28 13:01:41;;;;;;;4.75;2.13;;;;;;;;;;4957794;28;20077;-81
2022/04/28 13:04:14;;;;;;;6.95;2.42;;;;;;;;;;4957809;28;20476;-86
2022/04/28 13:06:44;;;;;;;3.58;1.90;;;;;;;;;;4957841;28;20046;-81
2022/04/28 13:09:10;;;;;;;4.32;2.17;;;;;;;;;;4956943;28;20404;-82
2022/04/28 13:11:40;;;;;;;3.97;2.50;;;;;;;;;;4956924;28;20027;-82
2022/04/28 13:14:11;;;;;;;4.07;2.17;;;;;;;;;;4957260;28;20026;-81
2022/04/28 13:16:37;;;;;;;5.10;2.30;;;;;;;;;;4957304;28;20086;-85
2022/04/28 13:19:04;;;;;;;4.15;2.17;;;;;;;;;;4957119;28;20126;-86
2022/04/28 13:21:31;;;;;;;7.20;2.50;;;;;;;;;;4957665;28;20029;-87
2022/04/28 13:23:58;;;;;;;4.32;2.50;;;;;;;;;;4957778;28;20078;-83
2022/04/28 13:26:26;;;;;;;5.40;2.30;;;;;;;;;;4974287;28;20023;-83
2022/04/28 13:28:52;;;;;;;8.48;2.55;;;;;;;;;;4956869;28;20383;-81
2022/04/28 13:31:22;;;;;;;5.50;2.60;;;;;;;;;;4958286;28;20349;-81
2022/04/28 13:33:48;;;;;;;7.05;2.40;;;;;;;;;;4961287;28;20027;-83
2022/04/28 13:36:16;;;;;;;6.63;2.67;;;;;;;;;;4977972;28;20081;-83
2022/04/28 13:38:42;;;;;;;5.05;2.97;;;;;;;;;;4961217;28;20045;-84
2022/04/28 13:41:12;;;;;;;6.03;3.15;;;;;;;;;;4963832;28;20526;-82
2022/04/28 13:43:41;;;;;;;6.10;3.25;;;;;;;;;;4964744;28;20034;-83
2022/04/28 13:46:08;;;;;;;5.45;2.95;;;;;;;;;;4961143;28;20023;-84
2022/04/28 13:48:41;;;;;;;7.13;2.92;;;;;;;;;;4960736;28;20066;-84
2022/04/28 13:51:10;;;;;;;4.37;2.67;;;;;;;;;;4977614;28;20058;-82
2022/04/28 13:53:37;;;;;;;7.00;2.72;;;;;;;;;;4960454;28;20026;-84
2022/04/28 13:56:04;;;;;;;3.95;2.35;;;;;;;;;;4960461;28;20034;-83
2022/04/28 13:58:30;;;;;;;5.85;2.55;;;;;;;;;;4977613;28;20031;-82
2022/04/28 14:00:57;;;;;;;3.65;2.40;;;;;;;;;;4960436;28;20031;-83
2022/04/28 14:03:27;;;;;;;3.95;2.15;;;;;;;;;;4960917;28;20070;-84
2022/04/28 14:05:53;;;;;;;4.32;2.20;;;;;;;;;;4960843;28;20034;-83
2022/04/28 14:08:26;;;;;;;4.07;2.17;;;;;;;;;;4960671;28;20050;-82
2022/04/28 14:10:59;;;;;;;5.30;1.83;;;;;;;;;;4960006;28;20480;-90
2022/04/28 14:13:28;;;;;;;4.50;2.05;;;;;;;;;;4960278;28;20035;-84
2022/04/28 14:15:57;;;;;;;3.65;1.98;;;;;;;;;;4960375;28;20035;-84
2022/04/28 14:18:27;;;;;;;3.72;2.10;;;;;;;;;;4960511;28;20113;-87
2022/04/28 14:20:57;;;;;;;6.75;1.92;;;;;;;;;;4961266;28;20037;-92
2022/04/28 14:23:27;;;;;;;6.13;2.00;;;;;;;;;;4961247;28;20105;-85
2022/04/28 14:25:57;;;;;;;3.15;1.90;;;;;;;;;;4960737;28;20115;-86
2022/04/28 14:28:33;;;;;;;5.03;1.83;;;;;;;;;;4962064;28;20102;-89
2022/04/28 14:31:03;;;;;;;3.63;1.98;;;;;;;;;;4973914;28;20055;-86
2022/04/28 14:33:32;;;;;;;4.00;1.73;;;;;;;;;;4958653;29;20031;-84
2022/04/28 14:35:59;;;;;;;4.05;2.17;;;;;;;;;;4959203;29;20098;-90
2022/04/28 14:38:25;;;;;;;3.97;2.20;;;;;;;;;;4958837;29;20050;-86
2022/04/28 14:40:58;;;;;;;3.70;1.83;;;;;;;;;;4958373;28;20023;-86
2022/04/28 14:43:28;;;;;;;4.15;1.50;;;;;;;;;;4957608;28;20031;-87
2022/04/28 14:46:02;;;;;;;3.50;2.05;;;;;;;;;;4955141;28;20045;-84
2022/04/28 14:52:19;;;;;;;6.07;1.75;;;;;;;;;;4957413;29;20023;-93
2022/04/28 14:54:05;;;;;;;3.60;1.50;;;;;;;;;;4939619;29;20043;-83
2022/04/28 14:56:38;;;;;;;4.38;1.75;;;;;;;;;;4937355;29;20032;-83
2022/04/28 15:02:18;;;;;;;4.55;1.67;;;;;;;;;;4937933;29;20031;-86
2022/04/28 15:04:56;;;;;;;2.92;1.73;;;;;;;;;;4940861;29;20032;-82
2022/04/28 15:07:22;;;;;;;8.43;2.00;;;;;;;;;;4952630;28;20083;-82
2022/04/28 15:09:59;;;;;;;6.65;2.00;;;;;;;;;;4956538;29;20031;-81
2022/04/28 15:12:25;;;;;;;4.18;1.60;;;;;;;;;;4956555;29;20032;-83
2022/04/28 15:14:51;;;;;;;3.42;1.70;;;;;;;;;;4955977;29;20031;-83
2022/04/28 15:17:21;;;;;;;3.80;1.70;;;;;;;;;;4956449;29;20031;-84
2022/04/28 15:19:55;;;;;;;2.38;1.40;;;;;;;;;;4956408;29;20039;-84
2022/04/28 15:22:24;;;;;;;3.17;1.90;;;;;;;;;;4957493;28;20027;-83
2022/04/28 15:24:50;;;;;;;5.40;2.42;;;;;;;;;;4955779;29;20035;-83